sensor_id;sensor_type;location;lat;lon;timestamp;temperature;humidity
25058;DHT22;13057;50.978;11.034;2023-01-29T00:00:38;1.90;98.60
25058;DHT22;13057;50.978;11.034;2023-01-29T00:03:03;1.90;98.40
25058;DHT22;13057;50.978;11.034;2023-01-29T00:05:31;1.90;98.50
25058;DHT22;13057;50.978;11.034;2023-01-29T00:08:00;1.90;98.60
25058;DHT22;13057;50.978;11.034;2023-01-29T00:10:26;1.90;98.80
25058;DHT22;13057;50.978;11.034;2023-01-29T00:12:52;1.80;98.90
25058;DHT22;13057;50.978;11.034;2023-01-29T00:15:18;1.80;98.90
25058;DHT22;13057;50.978;11.034;2023-01-29T00:17:46;1.70;99.40
25058;DHT22;13057;50.978;11.034;2023-01-29T00:20:12;1.70;99.40
25058;DHT22;13057;50.978;11.034;2023-01-29T00:22:38;1.70;99.30
25058;DHT22;13057;50.978;11.034;2023-01-29T00:25:04;1.70;99.20
25058;DHT22;13057;50.978;11.034;2023-01-29T00:27:30;1.70;99.20
25058;DHT22;13057;50.978;11.034;2023-01-29T00:29:56;1.70;99.10
25058;DHT22;13057;50.978;11.034;2023-01-29T00:32:34;1.70;99.10
25058;DHT22;13057;50.978;11.034;2023-01-29T00:35:00;1.70;99.20
25058;DHT22;13057;50.978;11.034;2023-01-29T00:37:26;1.70;99.30
25058;DHT22;13057;50.978;11.034;2023-01-29T00:39:52;1.70;99.20
25058;DHT22;13057;50.978;11.034;2023-01-29T00:42:18;1.70;99.20
25058;DHT22;13057;50.978;11.034;2023-01-29T00:44:56;1.60;99.20
25058;DHT22;13057;50.978;11.034;2023-01-29T00:47:22;1.60;99.50
25058;DHT22;13057;50.978;11.034;2023-01-29T00:49:55;1.50;99.30
25058;DHT22;13057;50.978;11.034;2023-01-29T00:52:22;1.40;99.40
25058;DHT22;13057;50.978;11.034;2023-01-29T00:54:48;1.30;99.60
25058;DHT22;13057;50.978;11.034;2023-01-29T00:57:14;1.30;99.70
25058;DHT22;13057;50.978;11.034;2023-01-29T00:59:40;1.30;99.80
25058;DHT22;13057;50.978;11.034;2023-01-29T01:02:06;1.30;99.90
25058;DHT22;13057;50.978;11.034;2023-01-29T01:04:44;1.20;99.90
25058;DHT22;13057;50.978;11.034;2023-01-29T01:07:10;1.20;99.90
25058;DHT22;13057;50.978;11.034;2023-01-29T01:09:36;1.10;99.90
25058;DHT22;13057;50.978;11.034;2023-01-29T01:12:14;1.10;99.90
25058;DHT22;13057;50.978;11.034;2023-01-29T01:14:40;1.10;99.90
25058;DHT22;13057;50.978;11.034;2023-01-29T01:17:08;1.10;99.90
25058;DHT22;13057;50.978;11.034;2023-01-29T01:19:34;1.10;99.90
25058;DHT22;13057;50.978;11.034;2023-01-29T01:22:00;1.10;99.90
25058;DHT22;13057;50.978;11.034;2023-01-29T01:24:26;1.10;99.90
25058;DHT22;13057;50.978;11.034;2023-01-29T01:26:52;1.10;99.90
25058;DHT22;13057;50.978;11.034;2023-01-29T01:29:18;1.10;99.90
25058;DHT22;13057;50.978;11.034;2023-01-29T01:31:43;1.10;99.90
25058;DHT22;13057;50.978;11.034;2023-01-29T01:34:10;1.10;99.90
25058;DHT22;13057;50.978;11.034;2023-01-29T01:36:36;1.10;99.80
25058;DHT22;13057;50.978;11.034;2023-01-29T01:39:02;1.00;99.90
25058;DHT22;13057;50.978;11.034;2023-01-29T01:41:29;1.00;99.90
25058;DHT22;13057;50.978;11.034;2023-01-29T01:43:58;0.90;99.90
25058;DHT22;13057;50.978;11.034;2023-01-29T01:46:29;1.00;99.90
25058;DHT22;13057;50.978;11.034;2023-01-29T01:49:10;0.90;99.90
25058;DHT22;13057;50.978;11.034;2023-01-29T01:51:43;0.90;99.90
25058;DHT22;13057;50.978;11.034;2023-01-29T01:54:12;0.90;99.90
25058;DHT22;13057;50.978;11.034;2023-01-29T01:56:44;0.90;99.90
25058;DHT22;13057;50.978;11.034;2023-01-29T01:59:15;0.90;99.90
25058;DHT22;13057;50.978;11.034;2023-01-29T02:01:44;0.70;99.90
25058;DHT22;13057;50.978;11.034;2023-01-29T02:04:17;0.70;99.90
25058;DHT22;13057;50.978;11.034;2023-01-29T02:06:58;0.70;99.90
25058;DHT22;13057;50.978;11.034;2023-01-29T02:09:41;0.70;99.90
25058;DHT22;13057;50.978;11.034;2023-01-29T02:12:12;0.70;99.90
25058;DHT22;13057;50.978;11.034;2023-01-29T02:14:40;0.80;99.90
25058;DHT22;13057;50.978;11.034;2023-01-29T02:17:15;0.70;99.90
25058;DHT22;13057;50.978;11.034;2023-01-29T02:22:50;0.70;99.90
25058;DHT22;13057;50.978;11.034;2023-01-29T02:25:49;0.60;99.90
25058;DHT22;13057;50.978;11.034;2023-01-29T02:28:31;0.60;99.90
25058;DHT22;13057;50.978;11.034;2023-01-29T02:31:11;0.60;99.90
25058;DHT22;13057;50.978;11.034;2023-01-29T02:33:48;0.60;99.90
25058;DHT22;13057;50.978;11.034;2023-01-29T02:36:28;0.60;99.90
25058;DHT22;13057;50.978;11.034;2023-01-29T02:39:10;0.50;99.90
25058;DHT22;13057;50.978;11.034;2023-01-29T02:41:51;0.40;99.90
25058;DHT22;13057;50.978;11.034;2023-01-29T02:44:25;0.40;99.90
25058;DHT22;13057;50.978;11.034;2023-01-29T02:47:00;0.40;99.90
25058;DHT22;13057;50.978;11.034;2023-01-29T02:49:39;0.30;99.90
25058;DHT22;13057;50.978;11.034;2023-01-29T02:52:15;0.30;99.90
25058;DHT22;13057;50.978;11.034;2023-01-29T02:54:49;0.30;99.90
25058;DHT22;13057;50.978;11.034;2023-01-29T02:57:24;0.30;99.90
25058;DHT22;13057;50.978;11.034;2023-01-29T02:59:58;0.30;99.90
25058;DHT22;13057;50.978;11.034;2023-01-29T03:02:32;0.40;99.90
25058;DHT22;13057;50.978;11.034;2023-01-29T03:05:03;0.40;99.90
25058;DHT22;13057;50.978;11.034;2023-01-29T03:07:37;0.40;99.80
25058;DHT22;13057;50.978;11.034;2023-01-29T03:10:25;0.30;99.90
25058;DHT22;13057;50.978;11.034;2023-01-29T03:12:58;0.40;99.90
25058;DHT22;13057;50.978;11.034;2023-01-29T03:15:29;0.40;99.90
25058;DHT22;13057;50.978;11.034;2023-01-29T03:18:08;0.30;99.90
25058;DHT22;13057;50.978;11.034;2023-01-29T03:20:40;0.40;99.90
25058;DHT22;13057;50.978;11.034;2023-01-29T03:23:20;0.40;99.90
25058;DHT22;13057;50.978;11.034;2023-01-29T03:25:53;0.40;99.90
25058;DHT22;13057;50.978;11.034;2023-01-29T03:28:33;0.30;99.90
25058;DHT22;13057;50.978;11.034;2023-01-29T03:31:12;0.30;99.90
25058;DHT22;13057;50.978;11.034;2023-01-29T03:33:57;0.20;99.90
25058;DHT22;13057;50.978;11.034;2023-01-29T03:36:34;0.20;99.90
25058;DHT22;13057;50.978;11.034;2023-01-29T03:39:06;0.20;99.90
25058;DHT22;13057;50.978;11.034;2023-01-29T03:41:37;0.10;99.90
25058;DHT22;13057;50.978;11.034;2023-01-29T03:44:15;0.00;99.90
25058;DHT22;13057;50.978;11.034;2023-01-29T03:46:58;0.00;99.90
25058;DHT22;13057;50.978;11.034;2023-01-29T03:52:22;0.00;99.90
25058;DHT22;13057;50.978;11.034;2023-01-29T03:55:02;0.00;99.90
25058;DHT22;13057;50.978;11.034;2023-01-29T03:57:41;-0.10;99.90
25058;DHT22;13057;50.978;11.034;2023-01-29T04:00:20;-0.10;99.90
25058;DHT22;13057;50.978;11.034;2023-01-29T04:03:05;0.00;99.90
25058;DHT22;13057;50.978;11.034;2023-01-29T04:05:39;-0.10;99.90
25058;DHT22;13057;50.978;11.034;2023-01-29T04:08:13;0.00;99.90
25058;DHT22;13057;50.978;11.034;2023-01-29T04:10:42;-0.10;99.90
25058;DHT22;13057;50.978;11.034;2023-01-29T04:13:11;-0.10;99.90
25058;DHT22;13057;50.978;11.034;2023-01-29T04:15:45;-0.10;99.90
25058;DHT22;13057;50.978;11.034;2023-01-29T04:18:12;-0.10;99.90
25058;DHT22;13057;50.978;11.034;2023-01-29T04:20:38;-0.20;99.90
25058;DHT22;13057;50.978;11.034;2023-01-29T04:23:06;-0.20;99.90
25058;DHT22;13057;50.978;11.034;2023-01-29T04:25:41;-0.30;99.90
25058;DHT22;13057;50.978;11.034;2023-01-29T04:28:18;-0.30;99.90
25058;DHT22;13057;50.978;11.034;2023-01-29T04:30:52;-0.40;99.90
25058;DHT22;13057;50.978;11.034;2023-01-29T04:33:38;-0.40;99.90
25058;DHT22;13057;50.978;11.034;2023-01-29T04:36:23;-0.40;99.90
25058;DHT22;13057;50.978;11.034;2023-01-29T04:41:52;-0.30;99.90
25058;DHT22;13057;50.978;11.034;2023-01-29T04:44:32;-0.40;99.90
25058;DHT22;13057;50.978;11.034;2023-01-29T04:47:18;-0.50;99.90
25058;DHT22;13057;50.978;11.034;2023-01-29T04:50:01;-0.40;99.90
25058;DHT22;13057;50.978;11.034;2023-01-29T04:52:48;-0.50;99.90
25058;DHT22;13057;50.978;11.034;2023-01-29T04:55:25;-0.40;99.90
25058;DHT22;13057;50.978;11.034;2023-01-29T04:58:01;-0.40;99.90
25058;DHT22;13057;50.978;11.034;2023-01-29T05:00:33;-0.50;99.90
25058;DHT22;13057;50.978;11.034;2023-01-29T05:03:00;-0.50;99.90
25058;DHT22;13057;50.978;11.034;2023-01-29T05:05:27;-0.40;99.90
25058;DHT22;13057;50.978;11.034;2023-01-29T05:07:54;-0.50;99.90
25058;DHT22;13057;50.978;11.034;2023-01-29T05:10:23;-0.50;99.90
25058;DHT22;13057;50.978;11.034;2023-01-29T05:12:53;-0.50;99.90
25058;DHT22;13057;50.978;11.034;2023-01-29T05:15:29;-0.50;99.90
25058;DHT22;13057;50.978;11.034;2023-01-29T05:17:56;-0.60;99.90
25058;DHT22;13057;50.978;11.034;2023-01-29T05:20:26;-0.60;99.90
25058;DHT22;13057;50.978;11.034;2023-01-29T05:22:52;-0.70;99.90
25058;DHT22;13057;50.978;11.034;2023-01-29T05:25:22;-0.70;99.90
25058;DHT22;13057;50.978;11.034;2023-01-29T05:27:49;-0.60;99.90
25058;DHT22;13057;50.978;11.034;2023-01-29T05:30:28;-0.60;99.90
25058;DHT22;13057;50.978;11.034;2023-01-29T05:32:54;-0.60;99.90
25058;DHT22;13057;50.978;11.034;2023-01-29T05:35:20;-0.50;99.90
25058;DHT22;13057;50.978;11.034;2023-01-29T05:37:46;-0.40;99.90
25058;DHT22;13057;50.978;11.034;2023-01-29T05:40:12;-0.40;99.90
25058;DHT22;13057;50.978;11.034;2023-01-29T05:42:37;-0.40;99.90
25058;DHT22;13057;50.978;11.034;2023-01-29T05:45:04;-0.50;99.70
25058;DHT22;13057;50.978;11.034;2023-01-29T05:47:30;-0.40;99.90
25058;DHT22;13057;50.978;11.034;2023-01-29T05:49:56;-0.40;99.90
25058;DHT22;13057;50.978;11.034;2023-01-29T05:52:22;-0.40;99.80
25058;DHT22;13057;50.978;11.034;2023-01-29T05:54:47;-0.50;99.70
25058;DHT22;13057;50.978;11.034;2023-01-29T05:57:14;-0.60;99.90
25058;DHT22;13057;50.978;11.034;2023-01-29T05:59:40;-0.60;99.90
25058;DHT22;13057;50.978;11.034;2023-01-29T06:02:06;-0.60;99.90
25058;DHT22;13057;50.978;11.034;2023-01-29T06:04:31;-0.50;99.90
25058;DHT22;13057;50.978;11.034;2023-01-29T06:06:57;-0.50;99.90
25058;DHT22;13057;50.978;11.034;2023-01-29T06:09:23;-0.60;99.90
25058;DHT22;13057;50.978;11.034;2023-01-29T06:11:49;-0.60;99.90
25058;DHT22;13057;50.978;11.034;2023-01-29T06:14:15;-0.50;99.90
25058;DHT22;13057;50.978;11.034;2023-01-29T06:16:41;-0.60;99.90
25058;DHT22;13057;50.978;11.034;2023-01-29T06:19:07;-0.50;99.90
25058;DHT22;13057;50.978;11.034;2023-01-29T06:21:33;-0.50;99.90
25058;DHT22;13057;50.978;11.034;2023-01-29T06:23:58;-0.40;99.90
25058;DHT22;13057;50.978;11.034;2023-01-29T06:26:25;-0.40;99.90
25058;DHT22;13057;50.978;11.034;2023-01-29T06:28:50;-0.40;99.90
25058;DHT22;13057;50.978;11.034;2023-01-29T06:31:16;-0.40;99.80
25058;DHT22;13057;50.978;11.034;2023-01-29T06:33:43;-0.30;99.70
25058;DHT22;13057;50.978;11.034;2023-01-29T06:36:09;-0.30;99.90
25058;DHT22;13057;50.978;11.034;2023-01-29T06:38:35;-0.40;99.60
25058;DHT22;13057;50.978;11.034;2023-01-29T06:41:09;-0.40;99.80
25058;DHT22;13057;50.978;11.034;2023-01-29T06:43:36;-0.40;99.70
25058;DHT22;13057;50.978;11.034;2023-01-29T06:46:03;-0.40;99.60
25058;DHT22;13057;50.978;11.034;2023-01-29T06:48:30;-0.50;99.70
25058;DHT22;13057;50.978;11.034;2023-01-29T06:51:01;-0.60;99.80
25058;DHT22;13057;50.978;11.034;2023-01-29T06:53:27;-0.60;99.90
25058;DHT22;13057;50.978;11.034;2023-01-29T06:55:53;-0.70;99.90
25058;DHT22;13057;50.978;11.034;2023-01-29T06:58:20;-0.70;99.90
25058;DHT22;13057;50.978;11.034;2023-01-29T07:00:45;-0.70;99.90
25058;DHT22;13057;50.978;11.034;2023-01-29T07:03:11;-0.70;99.90
25058;DHT22;13057;50.978;11.034;2023-01-29T07:05:37;-0.60;99.90
25058;DHT22;13057;50.978;11.034;2023-01-29T07:08:06;-0.70;99.90
25058;DHT22;13057;50.978;11.034;2023-01-29T07:10:34;-0.70;99.90
25058;DHT22;13057;50.978;11.034;2023-01-29T07:13:00;-0.60;99.90
25058;DHT22;13057;50.978;11.034;2023-01-29T07:15:26;-0.60;99.90
25058;DHT22;13057;50.978;11.034;2023-01-29T07:18:00;-0.50;99.90
25058;DHT22;13057;50.978;11.034;2023-01-29T07:20:28;-0.50;99.90
25058;DHT22;13057;50.978;11.034;2023-01-29T07:22:55;-0.50;99.80
25058;DHT22;13057;50.978;11.034;2023-01-29T07:25:21;-0.50;99.90
25058;DHT22;13057;50.978;11.034;2023-01-29T07:27:47;-0.40;99.80
25058;DHT22;13057;50.978;11.034;2023-01-29T07:30:15;-0.40;99.60
25058;DHT22;13057;50.978;11.034;2023-01-29T07:32:40;-0.40;99.60
25058;DHT22;13057;50.978;11.034;2023-01-29T07:35:07;-0.30;99.80
25058;DHT22;13057;50.978;11.034;2023-01-29T07:37:33;-0.30;99.80
25058;DHT22;13057;50.978;11.034;2023-01-29T07:39:58;-0.30;99.60
25058;DHT22;13057;50.978;11.034;2023-01-29T07:42:24;-0.30;99.90
25058;DHT22;13057;50.978;11.034;2023-01-29T07:44:50;-0.30;99.50
25058;DHT22;13057;50.978;11.034;2023-01-29T07:47:16;-0.30;99.70
25058;DHT22;13057;50.978;11.034;2023-01-29T07:49:42;-0.30;99.60
25058;DHT22;13057;50.978;11.034;2023-01-29T07:52:08;-0.30;99.80
25058;DHT22;13057;50.978;11.034;2023-01-29T07:54:34;-0.20;99.70
25058;DHT22;13057;50.978;11.034;2023-01-29T07:56:59;-0.20;99.80
25058;DHT22;13057;50.978;11.034;2023-01-29T07:59:25;-0.10;99.70
25058;DHT22;13057;50.978;11.034;2023-01-29T08:01:51;0.00;99.90
25058;DHT22;13057;50.978;11.034;2023-01-29T08:04:17;0.10;99.50
25058;DHT22;13057;50.978;11.034;2023-01-29T08:06:43;0.20;99.50
25058;DHT22;13057;50.978;11.034;2023-01-29T08:09:09;0.20;99.40
25058;DHT22;13057;50.978;11.034;2023-01-29T08:11:35;0.30;99.50
25058;DHT22;13057;50.978;11.034;2023-01-29T08:14:01;0.40;99.40
25058;DHT22;13057;50.978;11.034;2023-01-29T08:16:26;0.40;99.40
25058;DHT22;13057;50.978;11.034;2023-01-29T08:18:53;0.50;99.50
25058;DHT22;13057;50.978;11.034;2023-01-29T08:21:19;0.50;99.50
25058;DHT22;13057;50.978;11.034;2023-01-29T08:23:45;0.60;99.20
25058;DHT22;13057;50.978;11.034;2023-01-29T08:26:10;0.70;99.50
25058;DHT22;13057;50.978;11.034;2023-01-29T08:28:36;0.70;99.10
25058;DHT22;13057;50.978;11.034;2023-01-29T08:31:04;0.80;99.10
25058;DHT22;13057;50.978;11.034;2023-01-29T08:33:29;0.70;99.00
25058;DHT22;13057;50.978;11.034;2023-01-29T08:35:55;0.70;99.20
25058;DHT22;13057;50.978;11.034;2023-01-29T08:38:21;0.60;99.10
25058;DHT22;13057;50.978;11.034;2023-01-29T08:40:47;0.60;99.20
25058;DHT22;13057;50.978;11.034;2023-01-29T08:43:14;0.70;99.30
25058;DHT22;13057;50.978;11.034;2023-01-29T08:45:41;0.60;99.10
25058;DHT22;13057;50.978;11.034;2023-01-29T08:48:08;0.70;99.20
25058;DHT22;13057;50.978;11.034;2023-01-29T08:50:35;0.80;99.00
25058;DHT22;13057;50.978;11.034;2023-01-29T08:53:02;0.80;98.90
25058;DHT22;13057;50.978;11.034;2023-01-29T08:55:29;0.70;98.80
25058;DHT22;13057;50.978;11.034;2023-01-29T08:57:55;0.80;98.90
25058;DHT22;13057;50.978;11.034;2023-01-29T09:00:22;0.70;98.80
25058;DHT22;13057;50.978;11.034;2023-01-29T09:02:48;0.80;99.00
25058;DHT22;13057;50.978;11.034;2023-01-29T09:05:14;0.90;98.90
25058;DHT22;13057;50.978;11.034;2023-01-29T09:07:39;1.00;99.10
25058;DHT22;13057;50.978;11.034;2023-01-29T09:10:05;1.10;98.60
25058;DHT22;13057;50.978;11.034;2023-01-29T09:12:32;0.90;98.60
25058;DHT22;13057;50.978;11.034;2023-01-29T09:14:58;1.00;98.90
25058;DHT22;13057;50.978;11.034;2023-01-29T09:17:23;1.10;98.80
25058;DHT22;13057;50.978;11.034;2023-01-29T09:19:49;1.00;98.40
25058;DHT22;13057;50.978;11.034;2023-01-29T09:22:18;1.10;98.80
25058;DHT22;13057;50.978;11.034;2023-01-29T09:24:44;1.20;98.60
25058;DHT22;13057;50.978;11.034;2023-01-29T09:27:10;1.30;98.60
25058;DHT22;13057;50.978;11.034;2023-01-29T09:29:36;1.30;98.60
25058;DHT22;13057;50.978;11.034;2023-01-29T09:32:03;1.20;98.60
25058;DHT22;13057;50.978;11.034;2023-01-29T09:34:29;1.30;98.60
25058;DHT22;13057;50.978;11.034;2023-01-29T09:36:55;1.30;98.40
25058;DHT22;13057;50.978;11.034;2023-01-29T09:39:21;1.40;98.40
25058;DHT22;13057;50.978;11.034;2023-01-29T09:41:58;1.40;98.40
25058;DHT22;13057;50.978;11.034;2023-01-29T09:44:47;1.40;98.50
25058;DHT22;13057;50.978;11.034;2023-01-29T09:47:18;1.50;98.30
25058;DHT22;13057;50.978;11.034;2023-01-29T09:49:54;1.60;98.00
25058;DHT22;13057;50.978;11.034;2023-01-29T09:52:29;1.60;98.20
25058;DHT22;13057;50.978;11.034;2023-01-29T09:55:04;1.70;98.10
25058;DHT22;13057;50.978;11.034;2023-01-29T09:57:44;1.70;98.40
25058;DHT22;13057;50.978;11.034;2023-01-29T10:00:15;1.70;98.00
25058;DHT22;13057;50.978;11.034;2023-01-29T10:02:55;1.70;98.00
25058;DHT22;13057;50.978;11.034;2023-01-29T10:05:39;1.80;97.90
25058;DHT22;13057;50.978;11.034;2023-01-29T10:08:32;1.90;97.80
25058;DHT22;13057;50.978;11.034;2023-01-29T10:11:20;1.80;98.00
25058;DHT22;13057;50.978;11.034;2023-01-29T10:14:03;1.90;97.90
25058;DHT22;13057;50.978;11.034;2023-01-29T10:16:51;1.90;97.90
25058;DHT22;13057;50.978;11.034;2023-01-29T10:19:49;1.70;97.60
25058;DHT22;13057;50.978;11.034;2023-01-29T10:22:43;1.80;97.90
25058;DHT22;13057;50.978;11.034;2023-01-29T10:25:13;1.80;98.10
25058;DHT22;13057;50.978;11.034;2023-01-29T10:27:44;1.80;98.40
25058;DHT22;13057;50.978;11.034;2023-01-29T10:33:04;2.00;97.80
25058;DHT22;13057;50.978;11.034;2023-01-29T10:35:34;2.10;97.80
25058;DHT22;13057;50.978;11.034;2023-01-29T10:38:27;2.10;97.80
25058;DHT22;13057;50.978;11.034;2023-01-29T10:41:13;2.10;97.70
25058;DHT22;13057;50.978;11.034;2023-01-29T10:44:14;2.20;98.00
25058;DHT22;13057;50.978;11.034;2023-01-29T10:47:04;2.20;97.80
25058;DHT22;13057;50.978;11.034;2023-01-29T10:49:48;2.30;98.10
25058;DHT22;13057;50.978;11.034;2023-01-29T10:52:34;2.40;98.20
25058;DHT22;13057;50.978;11.034;2023-01-29T10:55:24;2.50;97.90
25058;DHT22;13057;50.978;11.034;2023-01-29T10:58:12;2.50;98.00
25058;DHT22;13057;50.978;11.034;2023-01-29T11:00:41;2.50;97.80
25058;DHT22;13057;50.978;11.034;2023-01-29T11:03:16;2.40;98.00
25058;DHT22;13057;50.978;11.034;2023-01-29T11:05:54;2.50;98.30
25058;DHT22;13057;50.978;11.034;2023-01-29T11:08:25;2.60;98.00
25058;DHT22;13057;50.978;11.034;2023-01-29T11:11:05;2.60;98.10
25058;DHT22;13057;50.978;11.034;2023-01-29T11:13:37;2.60;98.00
25058;DHT22;13057;50.978;11.034;2023-01-29T11:16:05;2.60;98.20
25058;DHT22;13057;50.978;11.034;2023-01-29T11:18:48;2.60;98.40
25058;DHT22;13057;50.978;11.034;2023-01-29T11:21:15;2.70;98.20
25058;DHT22;13057;50.978;11.034;2023-01-29T11:23:41;2.70;98.10
25058;DHT22;13057;50.978;11.034;2023-01-29T11:26:10;2.70;98.00
25058;DHT22;13057;50.978;11.034;2023-01-29T11:28:40;2.70;98.20
25058;DHT22;13057;50.978;11.034;2023-01-29T11:31:17;2.80;98.20
25058;DHT22;13057;50.978;11.034;2023-01-29T11:33:44;2.80;97.90
25058;DHT22;13057;50.978;11.034;2023-01-29T11:36:29;2.80;97.90
25058;DHT22;13057;50.978;11.034;2023-01-29T11:39:14;2.90;98.20
25058;DHT22;13057;50.978;11.034;2023-01-29T11:41:44;2.90;98.40
25058;DHT22;13057;50.978;11.034;2023-01-29T11:44:18;3.00;98.20
25058;DHT22;13057;50.978;11.034;2023-01-29T11:46:43;3.00;98.30
25058;DHT22;13057;50.978;11.034;2023-01-29T11:49:22;3.00;98.00
25058;DHT22;13057;50.978;11.034;2023-01-29T11:51:52;3.10;98.40
25058;DHT22;13057;50.978;11.034;2023-01-29T11:54:19;3.10;98.30
25058;DHT22;13057;50.978;11.034;2023-01-29T11:56:46;3.20;98.50
25058;DHT22;13057;50.978;11.034;2023-01-29T11:59:29;3.10;98.40
25058;DHT22;13057;50.978;11.034;2023-01-29T12:02:04;3.10;98.60
25058;DHT22;13057;50.978;11.034;2023-01-29T12:04:31;3.10;98.40
25058;DHT22;13057;50.978;11.034;2023-01-29T12:06:57;3.10;98.60
25058;DHT22;13057;50.978;11.034;2023-01-29T12:09:25;3.00;98.80
25058;DHT22;13057;50.978;11.034;2023-01-29T12:11:52;3.00;98.80
25058;DHT22;13057;50.978;11.034;2023-01-29T12:14:29;3.10;99.00
25058;DHT22;13057;50.978;11.034;2023-01-29T12:17:02;3.20;98.90
25058;DHT22;13057;50.978;11.034;2023-01-29T12:19:43;3.30;98.90
25058;DHT22;13057;50.978;11.034;2023-01-29T12:22:23;3.30;98.60
25058;DHT22;13057;50.978;11.034;2023-01-29T12:24:56;3.40;98.60
25058;DHT22;13057;50.978;11.034;2023-01-29T12:27:38;3.40;98.50
25058;DHT22;13057;50.978;11.034;2023-01-29T12:30:18;3.50;98.60
25058;DHT22;13057;50.978;11.034;2023-01-29T12:32:52;3.50;98.50
25058;DHT22;13057;50.978;11.034;2023-01-29T12:35:25;3.50;98.50
25058;DHT22;13057;50.978;11.034;2023-01-29T12:38:01;3.60;98.00
25058;DHT22;13057;50.978;11.034;2023-01-29T12:40:33;3.50;97.90
25058;DHT22;13057;50.978;11.034;2023-01-29T12:43:11;3.50;98.20
25058;DHT22;13057;50.978;11.034;2023-01-29T12:45:38;3.40;98.00
25058;DHT22;13057;50.978;11.034;2023-01-29T12:48:11;3.30;98.30
25058;DHT22;13057;50.978;11.034;2023-01-29T12:50:38;3.30;98.40
25058;DHT22;13057;50.978;11.034;2023-01-29T12:53:31;3.30;98.70
25058;DHT22;13057;50.978;11.034;2023-01-29T12:56:03;3.30;98.50
25058;DHT22;13057;50.978;11.034;2023-01-29T12:58:35;3.30;98.60
25058;DHT22;13057;50.978;11.034;2023-01-29T13:01:11;3.30;98.60
25058;DHT22;13057;50.978;11.034;2023-01-29T13:03:48;3.30;98.80
25058;DHT22;13057;50.978;11.034;2023-01-29T13:06:20;3.40;98.70
25058;DHT22;13057;50.978;11.034;2023-01-29T13:08:52;3.40;98.40
25058;DHT22;13057;50.978;11.034;2023-01-29T13:11:36;3.50;98.40
25058;DHT22;13057;50.978;11.034;2023-01-29T13:14:13;3.50;98.40
25058;DHT22;13057;50.978;11.034;2023-01-29T13:16:47;3.60;98.60
25058;DHT22;13057;50.978;11.034;2023-01-29T13:19:21;3.50;98.30
25058;DHT22;13057;50.978;11.034;2023-01-29T13:21:54;3.60;98.40
25058;DHT22;13057;50.978;11.034;2023-01-29T13:24:23;3.70;98.30
25058;DHT22;13057;50.978;11.034;2023-01-29T13:26:50;3.80;98.20
25058;DHT22;13057;50.978;11.034;2023-01-29T13:29:22;3.70;97.80
25058;DHT22;13057;50.978;11.034;2023-01-29T13:31:50;3.60;98.00
25058;DHT22;13057;50.978;11.034;2023-01-29T13:34:25;3.60;98.10
25058;DHT22;13057;50.978;11.034;2023-01-29T13:36:56;3.60;98.10
25058;DHT22;13057;50.978;11.034;2023-01-29T13:39:30;3.40;98.10
25058;DHT22;13057;50.978;11.034;2023-01-29T13:41:59;3.50;98.60
25058;DHT22;13057;50.978;11.034;2023-01-29T13:44:28;3.60;98.20
25058;DHT22;13057;50.978;11.034;2023-01-29T13:47:00;3.60;98.00
25058;DHT22;13057;50.978;11.034;2023-01-29T13:49:31;3.50;98.00
25058;DHT22;13057;50.978;11.034;2023-01-29T13:54:40;3.40;98.60
25058;DHT22;13057;50.978;11.034;2023-01-29T13:57:33;3.50;98.40
25058;DHT22;13057;50.978;11.034;2023-01-29T13:59:59;3.40;98.30
25058;DHT22;13057;50.978;11.034;2023-01-29T14:02:27;3.40;98.40
25058;DHT22;13057;50.978;11.034;2023-01-29T14:05:35;3.60;98.20
25058;DHT22;13057;50.978;11.034;2023-01-29T14:07:51;3.60;97.80
25058;DHT22;13057;50.978;11.034;2023-01-29T14:10:18;3.70;97.90
25058;DHT22;13057;50.978;11.034;2023-01-29T14:12:45;3.70;97.60
25058;DHT22;13057;50.978;11.034;2023-01-29T14:15:20;3.70;97.60
25058;DHT22;13057;50.978;11.034;2023-01-29T14:18:16;3.70;97.50
25058;DHT22;13057;50.978;11.034;2023-01-29T14:20:54;3.80;97.60
25058;DHT22;13057;50.978;11.034;2023-01-29T14:23:34;3.70;97.80
25058;DHT22;13057;50.978;11.034;2023-01-29T14:26:03;3.80;97.70
25058;DHT22;13057;50.978;11.034;2023-01-29T14:28:32;3.80;98.00
25058;DHT22;13057;50.978;11.034;2023-01-29T14:30:58;3.70;97.60
25058;DHT22;13057;50.978;11.034;2023-01-29T14:33:32;3.80;97.80
25058;DHT22;13057;50.978;11.034;2023-01-29T14:36:05;3.80;97.80
25058;DHT22;13057;50.978;11.034;2023-01-29T14:38:33;3.80;97.70
25058;DHT22;13057;50.978;11.034;2023-01-29T14:41:06;3.80;97.60
25058;DHT22;13057;50.978;11.034;2023-01-29T14:43:32;3.70;97.60
25058;DHT22;13057;50.978;11.034;2023-01-29T14:46:39;3.60;97.80
25058;DHT22;13057;50.978;11.034;2023-01-29T14:49:05;3.50;97.60
25058;DHT22;13057;50.978;11.034;2023-01-29T14:51:36;3.40;98.00
25058;DHT22;13057;50.978;11.034;2023-01-29T14:54:14;3.50;98.10
25058;DHT22;13057;50.978;11.034;2023-01-29T14:56:49;3.60;97.80
25058;DHT22;13057;50.978;11.034;2023-01-29T14:59:22;3.50;97.80
25058;DHT22;13057;50.978;11.034;2023-01-29T15:01:54;3.60;97.80
25058;DHT22;13057;50.978;11.034;2023-01-29T15:04:25;3.60;97.60
25058;DHT22;13057;50.978;11.034;2023-01-29T15:06:58;3.60;97.50
25058;DHT22;13057;50.978;11.034;2023-01-29T15:09:37;3.60;97.40
25058;DHT22;13057;50.978;11.034;2023-01-29T15:12:23;3.50;97.30
25058;DHT22;13057;50.978;11.034;2023-01-29T15:15:16;3.50;97.70
25058;DHT22;13057;50.978;11.034;2023-01-29T15:17:58;3.50;97.70
25058;DHT22;13057;50.978;11.034;2023-01-29T15:20:30;3.40;97.70
25058;DHT22;13057;50.978;11.034;2023-01-29T15:22:56;3.40;97.90
25058;DHT22;13057;50.978;11.034;2023-01-29T15:25:22;3.40;97.80
25058;DHT22;13057;50.978;11.034;2023-01-29T15:27:49;3.30;98.00
25058;DHT22;13057;50.978;11.034;2023-01-29T15:30:22;3.30;98.10
25058;DHT22;13057;50.978;11.034;2023-01-29T15:32:50;3.30;98.10
25058;DHT22;13057;50.978;11.034;2023-01-29T15:35:25;3.20;98.00
25058;DHT22;13057;50.978;11.034;2023-01-29T15:38:05;3.20;98.30
25058;DHT22;13057;50.978;11.034;2023-01-29T15:40:32;3.10;98.20
25058;DHT22;13057;50.978;11.034;2023-01-29T15:42:59;3.10;98.30
25058;DHT22;13057;50.978;11.034;2023-01-29T15:45:28;3.10;98.40
25058;DHT22;13057;50.978;11.034;2023-01-29T15:48:05;3.20;98.30
25058;DHT22;13057;50.978;11.034;2023-01-29T15:50:34;3.20;98.20
25058;DHT22;13057;50.978;11.034;2023-01-29T15:53:04;3.10;98.30
25058;DHT22;13057;50.978;11.034;2023-01-29T15:55:31;3.10;98.40
25058;DHT22;13057;50.978;11.034;2023-01-29T15:57:58;3.10;98.30
25058;DHT22;13057;50.978;11.034;2023-01-29T16:00:27;3.10;98.30
25058;DHT22;13057;50.978;11.034;2023-01-29T16:02:55;3.20;98.20
25058;DHT22;13057;50.978;11.034;2023-01-29T16:05:27;3.30;98.20
25058;DHT22;13057;50.978;11.034;2023-01-29T16:07:55;3.20;97.90
25058;DHT22;13057;50.978;11.034;2023-01-29T16:10:25;3.20;98.10